sensor_id;sensor_type;location;lat;lon;timestamp;temperature;humidity
53904;DHT22;39812;52.430;16.936;2022-09-09T00:00:22;16.30;99.90
53904;DHT22;39812;52.430;16.936;2022-09-09T00:03:19;16.30;99.90
53904;DHT22;39812;52.430;16.936;2022-09-09T00:05:57;16.30;99.90
53904;DHT22;39812;52.430;16.936;2022-09-09T00:11:05;16.30;99.90
53904;DHT22;39812;52.430;16.936;2022-09-09T00:13:48;16.20;99.90
53904;DHT22;39812;52.430;16.936;2022-09-09T00:16:23;16.20;99.90
53904;DHT22;39812;52.430;16.936;2022-09-09T00:19:20;16.20;99.90
53904;DHT22;39812;52.430;16.936;2022-09-09T00:22:08;16.10;99.90
53904;DHT22;39812;52.430;16.936;2022-09-09T00:27:21;16.00;99.90
53904;DHT22;39812;52.430;16.936;2022-09-09T00:29:53;16.00;99.90
53904;DHT22;39812;52.430;16.936;2022-09-09T00:32:20;16.00;99.90
53904;DHT22;39812;52.430;16.936;2022-09-09T00:34:52;16.10;99.90
53904;DHT22;39812;52.430;16.936;2022-09-09T00:37:20;16.20;99.90
53904;DHT22;39812;52.430;16.936;2022-09-09T00:39:47;16.20;99.90
53904;DHT22;39812;52.430;16.936;2022-09-09T00:42:26;16.20;99.90
53904;DHT22;39812;52.430;16.936;2022-09-09T00:48:10;16.20;99.90
53904;DHT22;39812;52.430;16.936;2022-09-09T00:50:56;16.20;99.90
53904;DHT22;39812;52.430;16.936;2022-09-09T00:53:51;16.20;99.90
53904;DHT22;39812;52.430;16.936;2022-09-09T00:56:27;16.20;99.90
53904;DHT22;39812;52.430;16.936;2022-09-09T00:59:04;16.20;99.90
53904;DHT22;39812;52.430;16.936;2022-09-09T01:01:31;16.20;99.90
53904;DHT22;39812;52.430;16.936;2022-09-09T01:03:57;16.20;99.90
53904;DHT22;39812;52.430;16.936;2022-09-09T01:06:34;16.20;99.90
53904;DHT22;39812;52.430;16.936;2022-09-09T01:11:29;16.10;99.90
53904;DHT22;39812;52.430;16.936;2022-09-09T01:14:11;16.20;99.90
53904;DHT22;39812;52.430;16.936;2022-09-09T01:16:39;16.10;99.90
53904;DHT22;39812;52.430;16.936;2022-09-09T01:19:07;16.10;99.90
53904;DHT22;39812;52.430;16.936;2022-09-09T01:21:50;16.00;99.90
53904;DHT22;39812;52.430;16.936;2022-09-09T01:27:04;16.00;99.90
53904;DHT22;39812;52.430;16.936;2022-09-09T01:29:30;16.00;99.90
53904;DHT22;39812;52.430;16.936;2022-09-09T01:34:42;15.80;99.90
53904;DHT22;39812;52.430;16.936;2022-09-09T01:37:08;15.70;99.90
53904;DHT22;39812;52.430;16.936;2022-09-09T01:39:37;15.70;99.90
53904;DHT22;39812;52.430;16.936;2022-09-09T01:42:05;15.60;99.90
53904;DHT22;39812;52.430;16.936;2022-09-09T01:44:31;15.50;99.90
53904;DHT22;39812;52.430;16.936;2022-09-09T01:46:57;15.60;99.90
53904;DHT22;39812;52.430;16.936;2022-09-09T01:49:23;15.60;99.90
53904;DHT22;39812;52.430;16.936;2022-09-09T01:51:55;15.50;99.90
53904;DHT22;39812;52.430;16.936;2022-09-09T01:54:23;15.50;99.90
53904;DHT22;39812;52.430;16.936;2022-09-09T02:00:09;15.40;99.90
53904;DHT22;39812;52.430;16.936;2022-09-09T02:02:46;15.30;99.90
53904;DHT22;39812;52.430;16.936;2022-09-09T02:05:24;15.30;99.90
53904;DHT22;39812;52.430;16.936;2022-09-09T02:08:03;15.30;99.90
53904;DHT22;39812;52.430;16.936;2022-09-09T02:10:55;15.30;99.90
53904;DHT22;39812;52.430;16.936;2022-09-09T02:13:22;15.20;99.90
53904;DHT22;39812;52.430;16.936;2022-09-09T02:15:55;15.20;99.90
53904;DHT22;39812;52.430;16.936;2022-09-09T02:18:32;15.10;99.90
53904;DHT22;39812;52.430;16.936;2022-09-09T02:21:00;15.10;99.90
53904;DHT22;39812;52.430;16.936;2022-09-09T02:23:27;15.10;99.90
53904;DHT22;39812;52.430;16.936;2022-09-09T02:25:55;15.00;99.90
53904;DHT22;39812;52.430;16.936;2022-09-09T02:28:24;15.00;99.90
53904;DHT22;39812;52.430;16.936;2022-09-09T02:30:51;15.00;99.90
53904;DHT22;39812;52.430;16.936;2022-09-09T02:33:23;15.00;99.90
53904;DHT22;39812;52.430;16.936;2022-09-09T02:35:50;15.00;99.90
53904;DHT22;39812;52.430;16.936;2022-09-09T02:38:17;15.00;99.90
53904;DHT22;39812;52.430;16.936;2022-09-09T02:40:43;14.90;99.90
53904;DHT22;39812;52.430;16.936;2022-09-09T02:43:09;14.90;99.90
53904;DHT22;39812;52.430;16.936;2022-09-09T02:48:31;14.90;99.90
53904;DHT22;39812;52.430;16.936;2022-09-09T02:51:17;14.90;99.90
53904;DHT22;39812;52.430;16.936;2022-09-09T02:54:04;15.00;99.90
53904;DHT22;39812;52.430;16.936;2022-09-09T02:56:35;15.00;99.90
53904;DHT22;39812;52.430;16.936;2022-09-09T02:59:04;15.00;99.90
53904;DHT22;39812;52.430;16.936;2022-09-09T03:01:30;15.10;99.90
53904;DHT22;39812;52.430;16.936;2022-09-09T03:03:57;15.10;99.90
53904;DHT22;39812;52.430;16.936;2022-09-09T03:06:22;15.10;99.90
53904;DHT22;39812;52.430;16.936;2022-09-09T03:08:48;15.10;99.90
53904;DHT22;39812;52.430;16.936;2022-09-09T03:11:15;15.10;99.90
53904;DHT22;39812;52.430;16.936;2022-09-09T03:13:40;15.20;99.90
53904;DHT22;39812;52.430;16.936;2022-09-09T03:16:06;15.20;99.90
53904;DHT22;39812;52.430;16.936;2022-09-09T03:18:31;15.20;99.90
53904;DHT22;39812;52.430;16.936;2022-09-09T03:20:57;15.20;99.90
53904;DHT22;39812;52.430;16.936;2022-09-09T03:23:24;15.20;99.90
53904;DHT22;39812;52.430;16.936;2022-09-09T03:25:50;15.20;99.90
53904;DHT22;39812;52.430;16.936;2022-09-09T03:28:17;15.20;99.90
53904;DHT22;39812;52.430;16.936;2022-09-09T03:30:43;15.20;99.90
53904;DHT22;39812;52.430;16.936;2022-09-09T03:33:08;15.20;99.90
53904;DHT22;39812;52.430;16.936;2022-09-09T03:35:34;15.20;99.90
53904;DHT22;39812;52.430;16.936;2022-09-09T03:37:59;15.30;99.90
53904;DHT22;39812;52.430;16.936;2022-09-09T03:40:26;15.20;99.90
53904;DHT22;39812;52.430;16.936;2022-09-09T03:42:51;15.20;99.90
53904;DHT22;39812;52.430;16.936;2022-09-09T03:45:17;15.20;99.90
53904;DHT22;39812;52.430;16.936;2022-09-09T03:47:42;15.20;99.90
53904;DHT22;39812;52.430;16.936;2022-09-09T03:50:08;15.20;99.90
53904;DHT22;39812;52.430;16.936;2022-09-09T03:52:36;15.20;99.90
53904;DHT22;39812;52.430;16.936;2022-09-09T03:55:02;15.20;99.90
53904;DHT22;39812;52.430;16.936;2022-09-09T03:57:28;15.20;99.90
53904;DHT22;39812;52.430;16.936;2022-09-09T03:59:55;15.20;99.90
53904;DHT22;39812;52.430;16.936;2022-09-09T04:02:20;15.20;99.90
53904;DHT22;39812;52.430;16.936;2022-09-09T04:04:46;15.20;99.90
53904;DHT22;39812;52.430;16.936;2022-09-09T04:07:12;15.20;99.90
53904;DHT22;39812;52.430;16.936;2022-09-09T04:09:38;15.20;99.90
53904;DHT22;39812;52.430;16.936;2022-09-09T04:12:03;15.20;99.90
53904;DHT22;39812;52.430;16.936;2022-09-09T04:14:29;15.20;99.90
53904;DHT22;39812;52.430;16.936;2022-09-09T04:16:55;15.20;99.90
53904;DHT22;39812;52.430;16.936;2022-09-09T04:19:22;15.20;99.90
53904;DHT22;39812;52.430;16.936;2022-09-09T04:21:48;15.20;99.90
53904;DHT22;39812;52.430;16.936;2022-09-09T04:24:15;15.20;99.90
53904;DHT22;39812;52.430;16.936;2022-09-09T04:26:41;15.20;99.90
53904;DHT22;39812;52.430;16.936;2022-09-09T04:29:07;15.20;99.90
53904;DHT22;39812;52.430;16.936;2022-09-09T04:31:33;15.20;99.90
53904;DHT22;39812;52.430;16.936;2022-09-09T04:33:58;15.20;99.90
53904;DHT22;39812;52.430;16.936;2022-09-09T04:36:27;15.20;99.90
53904;DHT22;39812;52.430;16.936;2022-09-09T04:38:53;15.20;99.90
53904;DHT22;39812;52.430;16.936;2022-09-09T04:41:18;15.20;99.90
53904;DHT22;39812;52.430;16.936;2022-09-09T04:43:44;15.20;99.90
53904;DHT22;39812;52.430;16.936;2022-09-09T04:46:09;15.10;99.90
53904;DHT22;39812;52.430;16.936;2022-09-09T04:48:35;15.10;99.90
53904;DHT22;39812;52.430;16.936;2022-09-09T04:51:03;15.10;99.90
53904;DHT22;39812;52.430;16.936;2022-09-09T04:53:29;15.20;99.90
53904;DHT22;39812;52.430;16.936;2022-09-09T04:56:21;15.20;99.90
53904;DHT22;39812;52.430;16.936;2022-09-09T04:58:46;15.20;99.90
53904;DHT22;39812;52.430;16.936;2022-09-09T05:01:14;15.20;99.90
53904;DHT22;39812;52.430;16.936;2022-09-09T05:03:40;15.20;99.90
53904;DHT22;39812;52.430;16.936;2022-09-09T05:06:10;15.20;99.90
53904;DHT22;39812;52.430;16.936;2022-09-09T05:08:37;15.20;99.90
53904;DHT22;39812;52.430;16.936;2022-09-09T05:11:04;15.20;99.90
53904;DHT22;39812;52.430;16.936;2022-09-09T05:13:29;15.20;99.90
53904;DHT22;39812;52.430;16.936;2022-09-09T05:15:57;15.30;99.90
53904;DHT22;39812;52.430;16.936;2022-09-09T05:18:22;15.30;99.90
53904;DHT22;39812;52.430;16.936;2022-09-09T05:20:49;15.30;99.90
53904;DHT22;39812;52.430;16.936;2022-09-09T05:23:16;15.40;99.90
53904;DHT22;39812;52.430;16.936;2022-09-09T05:25:41;15.30;99.90
53904;DHT22;39812;52.430;16.936;2022-09-09T05:28:07;15.30;99.90
53904;DHT22;39812;52.430;16.936;2022-09-09T05:30:33;15.30;99.90
53904;DHT22;39812;52.430;16.936;2022-09-09T05:32:59;15.30;99.90
53904;DHT22;39812;52.430;16.936;2022-09-09T05:35:25;15.40;99.90
53904;DHT22;39812;52.430;16.936;2022-09-09T05:37:50;15.40;99.90
53904;DHT22;39812;52.430;16.936;2022-09-09T05:40:15;15.30;99.90
53904;DHT22;39812;52.430;16.936;2022-09-09T05:42:41;15.40;99.90
53904;DHT22;39812;52.430;16.936;2022-09-09T05:45:08;15.40;99.90
53904;DHT22;39812;52.430;16.936;2022-09-09T05:47:34;15.50;99.90
53904;DHT22;39812;52.430;16.936;2022-09-09T05:50:00;15.50;99.90
53904;DHT22;39812;52.430;16.936;2022-09-09T05:52:26;15.50;99.90
53904;DHT22;39812;52.430;16.936;2022-09-09T05:54:52;15.60;99.90
53904;DHT22;39812;52.430;16.936;2022-09-09T05:57:19;15.80;99.90
53904;DHT22;39812;52.430;16.936;2022-09-09T05:59:45;15.90;99.90
53904;DHT22;39812;52.430;16.936;2022-09-09T06:02:11;16.00;99.90
53904;DHT22;39812;52.430;16.936;2022-09-09T06:04:37;16.10;99.90
53904;DHT22;39812;52.430;16.936;2022-09-09T06:07:03;16.10;99.90
53904;DHT22;39812;52.430;16.936;2022-09-09T06:09:29;16.20;99.90
53904;DHT22;39812;52.430;16.936;2022-09-09T06:11:55;16.30;99.90
53904;DHT22;39812;52.430;16.936;2022-09-09T06:14:22;16.50;99.90
53904;DHT22;39812;52.430;16.936;2022-09-09T06:16:48;16.60;99.90
53904;DHT22;39812;52.430;16.936;2022-09-09T06:19:14;16.90;99.90
53904;DHT22;39812;52.430;16.936;2022-09-09T06:21:39;17.10;99.90
53904;DHT22;39812;52.430;16.936;2022-09-09T06:24:06;16.90;99.90
53904;DHT22;39812;52.430;16.936;2022-09-09T06:26:37;17.10;99.90
53904;DHT22;39812;52.430;16.936;2022-09-09T06:29:05;17.20;99.90
53904;DHT22;39812;52.430;16.936;2022-09-09T06:31:33;17.50;99.90
53904;DHT22;39812;52.430;16.936;2022-09-09T06:34:00;17.60;99.90
53904;DHT22;39812;52.430;16.936;2022-09-09T06:36:30;17.80;99.90
53904;DHT22;39812;52.430;16.936;2022-09-09T06:38:56;17.70;99.90
53904;DHT22;39812;52.430;16.936;2022-09-09T06:41:24;17.70;99.90
53904;DHT22;39812;52.430;16.936;2022-09-09T06:43:51;17.80;99.90
53904;DHT22;39812;52.430;16.936;2022-09-09T06:46:24;17.80;99.90
53904;DHT22;39812;52.430;16.936;2022-09-09T06:48:53;18.00;99.90
53904;DHT22;39812;52.430;16.936;2022-09-09T06:51:22;18.00;99.90
53904;DHT22;39812;52.430;16.936;2022-09-09T06:53:51;18.10;99.90
53904;DHT22;39812;52.430;16.936;2022-09-09T06:58:46;18.30;99.90
53904;DHT22;39812;52.430;16.936;2022-09-09T07:01:16;18.40;99.90
53904;DHT22;39812;52.430;16.936;2022-09-09T07:03:46;18.60;99.90
53904;DHT22;39812;52.430;16.936;2022-09-09T07:06:20;19.10;99.90
53904;DHT22;39812;52.430;16.936;2022-09-09T07:09:10;19.40;99.90
53904;DHT22;39812;52.430;16.936;2022-09-09T07:11:44;19.70;99.90
53904;DHT22;39812;52.430;16.936;2022-09-09T07:14:10;19.50;99.90
53904;DHT22;39812;52.430;16.936;2022-09-09T07:16:39;19.40;99.90
53904;DHT22;39812;52.430;16.936;2022-09-09T07:19:05;19.20;99.90
53904;DHT22;39812;52.430;16.936;2022-09-09T07:21:32;19.00;99.90
53904;DHT22;39812;52.430;16.936;2022-09-09T07:23:58;18.80;99.90
53904;DHT22;39812;52.430;16.936;2022-09-09T07:26:27;18.60;99.90
53904;DHT22;39812;52.430;16.936;2022-09-09T07:28:54;18.50;99.90
53904;DHT22;39812;52.430;16.936;2022-09-09T07:31:35;18.40;99.90
53904;DHT22;39812;52.430;16.936;2022-09-09T07:34:02;18.20;99.90
53904;DHT22;39812;52.430;16.936;2022-09-09T07:36:33;18.10;99.90
53904;DHT22;39812;52.430;16.936;2022-09-09T07:39:07;17.90;99.90
53904;DHT22;39812;52.430;16.936;2022-09-09T07:41:38;17.80;99.90
53904;DHT22;39812;52.430;16.936;2022-09-09T07:44:07;17.80;99.90
53904;DHT22;39812;52.430;16.936;2022-09-09T07:46:34;17.70;99.90
53904;DHT22;39812;52.430;16.936;2022-09-09T07:49:00;17.80;99.90
53904;DHT22;39812;52.430;16.936;2022-09-09T07:51:29;17.90;99.90
53904;DHT22;39812;52.430;16.936;2022-09-09T07:53:57;17.90;99.90
53904;DHT22;39812;52.430;16.936;2022-09-09T07:56:24;18.10;99.90
53904;DHT22;39812;52.430;16.936;2022-09-09T07:58:50;18.20;99.90
53904;DHT22;39812;52.430;16.936;2022-09-09T08:01:27;18.30;99.90
53904;DHT22;39812;52.430;16.936;2022-09-09T08:04:02;18.50;99.90
53904;DHT22;39812;52.430;16.936;2022-09-09T08:06:34;18.70;99.90
53904;DHT22;39812;52.430;16.936;2022-09-09T08:09:01;18.80;99.90
53904;DHT22;39812;52.430;16.936;2022-09-09T08:11:29;18.90;99.90
53904;DHT22;39812;52.430;16.936;2022-09-09T08:13:55;18.80;99.90
53904;DHT22;39812;52.430;16.936;2022-09-09T08:16:23;18.90;99.90
53904;DHT22;39812;52.430;16.936;2022-09-09T08:18:50;18.90;99.90
53904;DHT22;39812;52.430;16.936;2022-09-09T08:21:19;18.90;99.90
53904;DHT22;39812;52.430;16.936;2022-09-09T08:23:45;18.90;99.90
53904;DHT22;39812;52.430;16.936;2022-09-09T08:26:14;19.10;99.90
53904;DHT22;39812;52.430;16.936;2022-09-09T08:28:41;19.10;99.90
53904;DHT22;39812;52.430;16.936;2022-09-09T08:31:11;19.30;99.90
53904;DHT22;39812;52.430;16.936;2022-09-09T08:33:38;19.40;99.90
53904;DHT22;39812;52.430;16.936;2022-09-09T08:36:05;19.50;99.90
53904;DHT22;39812;52.430;16.936;2022-09-09T08:38:31;19.60;99.90
53904;DHT22;39812;52.430;16.936;2022-09-09T08:41:07;19.80;99.90
53904;DHT22;39812;52.430;16.936;2022-09-09T08:43:36;19.90;99.90
53904;DHT22;39812;52.430;16.936;2022-09-09T08:46:39;20.10;99.90
53904;DHT22;39812;52.430;16.936;2022-09-09T08:52:39;20.10;99.90
53904;DHT22;39812;52.430;16.936;2022-09-09T08:55:24;20.30;99.90
53904;DHT22;39812;52.430;16.936;2022-09-09T08:57:54;20.50;99.90
53904;DHT22;39812;52.430;16.936;2022-09-09T09:00:20;20.50;99.90
53904;DHT22;39812;52.430;16.936;2022-09-09T09:03:14;20.50;99.90
53904;DHT22;39812;52.430;16.936;2022-09-09T09:11:40;20.90;99.90
53904;DHT22;39812;52.430;16.936;2022-09-09T09:14:20;21.00;99.90
53904;DHT22;39812;52.430;16.936;2022-09-09T09:19:15;21.40;99.90
53904;DHT22;39812;52.430;16.936;2022-09-09T09:21:44;21.50;99.90
53904;DHT22;39812;52.430;16.936;2022-09-09T09:24:19;21.80;99.90
53904;DHT22;39812;52.430;16.936;2022-09-09T09:26:45;21.70;99.90
53904;DHT22;39812;52.430;16.936;2022-09-09T09:29:13;21.60;99.90
53904;DHT22;39812;52.430;16.936;2022-09-09T09:31:51;21.60;99.90
53904;DHT22;39812;52.430;16.936;2022-09-09T09:34:17;21.80;99.90
53904;DHT22;39812;52.430;16.936;2022-09-09T09:36:54;21.80;99.90
53904;DHT22;39812;52.430;16.936;2022-09-09T09:39:31;21.90;99.90
53904;DHT22;39812;52.430;16.936;2022-09-09T09:42:11;22.10;99.90
53904;DHT22;39812;52.430;16.936;2022-09-09T09:44:40;22.20;99.90
53904;DHT22;39812;52.430;16.936;2022-09-09T09:47:13;22.30;99.90
53904;DHT22;39812;52.430;16.936;2022-09-09T09:49:50;22.90;99.90
53904;DHT22;39812;52.430;16.936;2022-09-09T09:52:21;23.10;99.90
53904;DHT22;39812;52.430;16.936;2022-09-09T09:54:47;23.50;99.90
53904;DHT22;39812;52.430;16.936;2022-09-09T09:57:14;23.40;99.90
53904;DHT22;39812;52.430;16.936;2022-09-09T09:59:40;23.60;99.90
53904;DHT22;39812;52.430;16.936;2022-09-09T10:02:15;23.70;99.90
53904;DHT22;39812;52.430;16.936;2022-09-09T10:04:41;24.00;99.90
53904;DHT22;39812;52.430;16.936;2022-09-09T10:07:20;24.20;99.90
53904;DHT22;39812;52.430;16.936;2022-09-09T10:09:52;24.20;99.60
53904;DHT22;39812;52.430;16.936;2022-09-09T10:12:30;24.00;99.80
53904;DHT22;39812;52.430;16.936;2022-09-09T10:20:46;24.50;98.10
53904;DHT22;39812;52.430;16.936;2022-09-09T10:26:04;24.70;98.10
53904;DHT22;39812;52.430;16.936;2022-09-09T10:28:53;25.60;97.30
53904;DHT22;39812;52.430;16.936;2022-09-09T10:34:35;25.70;96.20
53904;DHT22;39812;52.430;16.936;2022-09-09T10:37:13;25.20;96.00
53904;DHT22;39812;52.430;16.936;2022-09-09T10:39:44;25.30;95.60
53904;DHT22;39812;52.430;16.936;2022-09-09T10:42:14;25.70;95.20
53904;DHT22;39812;52.430;16.936;2022-09-09T10:44:58;25.60;95.30
53904;DHT22;39812;52.430;16.936;2022-09-09T10:47:41;25.80;94.90
53904;DHT22;39812;52.430;16.936;2022-09-09T10:55:43;24.80;94.40
53904;DHT22;39812;52.430;16.936;2022-09-09T10:58:14;24.70;94.70
53904;DHT22;39812;52.430;16.936;2022-09-09T11:00:45;24.80;95.20
53904;DHT22;39812;52.430;16.936;2022-09-09T11:03:19;24.70;95.30
53904;DHT22;39812;52.430;16.936;2022-09-09T11:05:57;24.70;94.80
53904;DHT22;39812;52.430;16.936;2022-09-09T11:08:29;25.00;94.30
53904;DHT22;39812;52.430;16.936;2022-09-09T11:11:14;25.30;94.40
53904;DHT22;39812;52.430;16.936;2022-09-09T11:16:27;24.60;94.00
53904;DHT22;39812;52.430;16.936;2022-09-09T11:18:56;24.90;94.00
53904;DHT22;39812;52.430;16.936;2022-09-09T11:21:28;25.50;93.90
53904;DHT22;39812;52.430;16.936;2022-09-09T11:24:02;26.60;93.00
53904;DHT22;39812;52.430;16.936;2022-09-09T11:26:41;27.20;92.00
53904;DHT22;39812;52.430;16.936;2022-09-09T11:29:47;26.70;90.00
53904;DHT22;39812;52.430;16.936;2022-09-09T11:38:23;27.80;90.00
53904;DHT22;39812;52.430;16.936;2022-09-09T11:40:59;27.80;88.20
53904;DHT22;39812;52.430;16.936;2022-09-09T11:43:30;28.00;87.60
53904;DHT22;39812;52.430;16.936;2022-09-09T11:45:59;29.80;85.30
53904;DHT22;39812;52.430;16.936;2022-09-09T11:48:36;31.80;80.30
53904;DHT22;39812;52.430;16.936;2022-09-09T11:51:11;32.30;72.60
53904;DHT22;39812;52.430;16.936;2022-09-09T11:53:55;32.60;69.20
53904;DHT22;39812;52.430;16.936;2022-09-09T11:56:29;33.00;67.80
53904;DHT22;39812;52.430;16.936;2022-09-09T11:59:05;33.40;66.40
53904;DHT22;39812;52.430;16.936;2022-09-09T12:01:34;33.20;65.20
53904;DHT22;39812;52.430;16.936;2022-09-09T12:06:48;30.70;69.40
53904;DHT22;39812;52.430;16.936;2022-09-09T12:09:33;29.40;70.10
53904;DHT22;39812;52.430;16.936;2022-09-09T12:12:22;28.50;70.70
53904;DHT22;39812;52.430;16.936;2022-09-09T12:14:57;27.00;74.20
53904;DHT22;39812;52.430;16.936;2022-09-09T12:17:25;28.00;71.80
53904;DHT22;39812;52.430;16.936;2022-09-09T12:20:02;28.60;72.90
53904;DHT22;39812;52.430;16.936;2022-09-09T12:28:18;29.60;68.00
53904;DHT22;39812;52.430;16.936;2022-09-09T12:31:21;28.80;69.80
53904;DHT22;39812;52.430;16.936;2022-09-09T12:33:50;29.00;70.00
53904;DHT22;39812;52.430;16.936;2022-09-09T12:36:24;28.10;69.40
53904;DHT22;39812;52.430;16.936;2022-09-09T12:38:52;27.70;70.80
53904;DHT22;39812;52.430;16.936;2022-09-09T12:41:20;28.10;71.80
53904;DHT22;39812;52.430;16.936;2022-09-09T12:43:46;31.50;68.00
53904;DHT22;39812;52.430;16.936;2022-09-09T12:46:23;35.40;63.70
53904;DHT22;39812;52.430;16.936;2022-09-09T12:48:51;39.20;57.60
53904;DHT22;39812;52.430;16.936;2022-09-09T12:51:26;40.10;53.50
53904;DHT22;39812;52.430;16.936;2022-09-09T12:53:52;41.60;50.50
53904;DHT22;39812;52.430;16.936;2022-09-09T12:56:20;42.80;47.80
53904;DHT22;39812;52.430;16.936;2022-09-09T12:58:48;42.40;46.00
53904;DHT22;39812;52.430;16.936;2022-09-09T13:01:25;41.60;45.60
53904;DHT22;39812;52.430;16.936;2022-09-09T13:03:51;41.40;45.40
53904;DHT22;39812;52.430;16.936;2022-09-09T13:06:21;41.80;45.50
53904;DHT22;39812;52.430;16.936;2022-09-09T13:08:48;40.90;44.00
53904;DHT22;39812;52.430;16.936;2022-09-09T13:11:18;39.40;46.10
53904;DHT22;39812;52.430;16.936;2022-09-09T13:13:54;39.40;46.80
53904;DHT22;39812;52.430;16.936;2022-09-09T13:16:29;40.50;46.00
53904;DHT22;39812;52.430;16.936;2022-09-09T13:19:00;42.40;45.10
53904;DHT22;39812;52.430;16.936;2022-09-09T13:21:34;43.80;43.30
53904;DHT22;39812;52.430;16.936;2022-09-09T13:24:00;40.70;43.00
53904;DHT22;39812;52.430;16.936;2022-09-09T13:26:28;37.90;45.00
53904;DHT22;39812;52.430;16.936;2022-09-09T13:28:55;35.00;48.20
53904;DHT22;39812;52.430;16.936;2022-09-09T13:31:35;33.40;51.50
53904;DHT22;39812;52.430;16.936;2022-09-09T13:34:11;34.60;51.90
53904;DHT22;39812;52.430;16.936;2022-09-09T13:36:38;35.30;50.80
53904;DHT22;39812;52.430;16.936;2022-09-09T13:39:05;36.60;49.40
53904;DHT22;39812;52.430;16.936;2022-09-09T13:41:34;37.60;48.30
53904;DHT22;39812;52.430;16.936;2022-09-09T13:44:01;36.90;46.50
53904;DHT22;39812;52.430;16.936;2022-09-09T13:46:33;35.60;48.00
53904;DHT22;39812;52.430;16.936;2022-09-09T13:49:21;32.80;51.10
53904;DHT22;39812;52.430;16.936;2022-09-09T13:51:51;30.80;53.60
53904;DHT22;39812;52.430;16.936;2022-09-09T13:54:20;29.50;56.20
53904;DHT22;39812;52.430;16.936;2022-09-09T13:56:46;31.70;54.90
53904;DHT22;39812;52.430;16.936;2022-09-09T13:59:16;32.70;53.40
53904;DHT22;39812;52.430;16.936;2022-09-09T14:01:41;32.60;52.80
53904;DHT22;39812;52.430;16.936;2022-09-09T14:04:08;32.80;53.10
53904;DHT22;39812;52.430;16.936;2022-09-09T14:06:38;33.30;53.40
53904;DHT22;39812;52.430;16.936;2022-09-09T14:09:05;35.70;51.40
53904;DHT22;39812;52.430;16.936;2022-09-09T14:11:31;34.00;50.80
53904;DHT22;39812;52.430;16.936;2022-09-09T14:13:57;32.10;52.90
53904;DHT22;39812;52.430;16.936;2022-09-09T14:16:22;30.80;54.80
53904;DHT22;39812;52.430;16.936;2022-09-09T14:18:48;29.40;57.10
53904;DHT22;39812;52.430;16.936;2022-09-09T14:21:14;28.40;59.20
53904;DHT22;39812;52.430;16.936;2022-09-09T14:23:41;27.80;60.10
53904;DHT22;39812;52.430;16.936;2022-09-09T14:26:06;27.50;61.30
53904;DHT22;39812;52.430;16.936;2022-09-09T14:28:33;27.20;62.00
53904;DHT22;39812;52.430;16.936;2022-09-09T14:31:03;27.20;62.20
53904;DHT22;39812;52.430;16.936;2022-09-09T14:33:29;27.10;62.70
53904;DHT22;39812;52.430;16.936;2022-09-09T14:35:57;26.50;62.10
53904;DHT22;39812;52.430;16.936;2022-09-09T14:38:22;26.10;63.00
53904;DHT22;39812;52.430;16.936;2022-09-09T14:40:48;26.40;63.20
53904;DHT22;39812;52.430;16.936;2022-09-09T14:43:13;27.50;62.20
53904;DHT22;39812;52.430;16.936;2022-09-09T14:45:39;28.40;60.80
53904;DHT22;39812;52.430;16.936;2022-09-09T14:48:04;29.90;59.90
53904;DHT22;39812;52.430;16.936;2022-09-09T14:50:30;31.20;56.50
53904;DHT22;39812;52.430;16.936;2022-09-09T14:52:56;31.00;56.20
53904;DHT22;39812;52.430;16.936;2022-09-09T14:55:21;31.20;55.90
53904;DHT22;39812;52.430;16.936;2022-09-09T14:57:47;31.40;54.70
53904;DHT22;39812;52.430;16.936;2022-09-09T15:00:12;32.40;54.10
53904;DHT22;39812;52.430;16.936;2022-09-09T15:02:38;31.50;54.00
53904;DHT22;39812;52.430;16.936;2022-09-09T15:05:04;30.90;55.00
53904;DHT22;39812;52.430;16.936;2022-09-09T15:07:30;31.90;55.20
53904;DHT22;39812;52.430;16.936;2022-09-09T15:09:57;32.60;53.90
53904;DHT22;39812;52.430;16.936;2022-09-09T15:12:23;32.90;52.90
53904;DHT22;39812;52.430;16.936;2022-09-09T15:14:49;33.60;53.00
53904;DHT22;39812;52.430;16.936;2022-09-09T15:17:16;35.90;51.50
53904;DHT22;39812;52.430;16.936;2022-09-09T15:19:41;37.20;49.40
53904;DHT22;39812;52.430;16.936;2022-09-09T15:22:08;36.70;48.50
53904;DHT22;39812;52.430;16.936;2022-09-09T15:24:34;35.40;48.90
53904;DHT22;39812;52.430;16.936;2022-09-09T15:27:00;33.20;51.60
53904;DHT22;39812;52.430;16.936;2022-09-09T15:29:26;32.70;53.50
53904;DHT22;39812;52.430;16.936;2022-09-09T15:31:53;32.70;53.50
53904;DHT22;39812;52.430;16.936;2022-09-09T15:34:19;32.00;53.80
53904;DHT22;39812;52.430;16.936;2022-09-09T15:36:45;31.30;55.00
53904;DHT22;39812;52.430;16.936;2022-09-09T15:39:15;30.60;55.70
53904;DHT22;39812;52.430;16.936;2022-09-09T15:41:42;29.90;56.80
53904;DHT22;39812;52.430;16.936;2022-09-09T15:44:09;28.80;58.70
53904;DHT22;39812;52.430;16.936;2022-09-09T15:46:42;28.30;59.60
53904;DHT22;39812;52.430;16.936;2022-09-09T15:49:12;27.70;61.00
53904;DHT22;39812;52.430;16.936;2022-09-09T15:51:43;26.80;62.80
53904;DHT22;39812;52.430;16.936;2022-09-09T15:54:10;26.20;64.90
53904;DHT22;39812;52.430;16.936;2022-09-09T15:56:37;25.80;65.10
53904;DHT22;39812;52.430;16.936;2022-09-09T15:59:03;25.60;66.80
53904;DHT22;39812;52.430;16.936;2022-09-09T16:01:29;25.40;66.80
53904;DHT22;39812;52.430;16.936;2022-09-09T16:03:57;25.10;67.30
53904;DHT22;39812;52.430;16.936;2022-09-09T16:06:23;25.20;67.60
53904;DHT22;39812;52.430;16.936;2022-09-09T16:08:51;25.60;67.50
53904;DHT22;39812;52.430;16.936;2022-09-09T16:11:19;26.70;65.90
53904;DHT22;39812;52.430;16.936;2022-09-09T16:13:46;29.30;62.60
53904;DHT22;39812;52.430;16.936;2022-09-09T16:16:13;30.90;59.00
53904;DHT22;39812;52.430;16.936;2022-09-09T16:18:41;31.40;57.70
53904;DHT22;39812;52.430;16.936;2022-09-09T16:21:07;31.30;57.00
53904;DHT22;39812;52.430;16.936;2022-09-09T16:23:34;31.50;56.80
53904;DHT22;39812;52.430;16.936;2022-09-09T16:26:00;31.00;57.40
53904;DHT22;39812;52.430;16.936;2022-09-09T16:28:26;31.70;56.90
53904;DHT22;39812;52.430;16.936;2022-09-09T16:30:52;31.70;56.70
53904;DHT22;39812;52.430;16.936;2022-09-09T16:33:18;30.90;57.00
53904;DHT22;39812;52.430;16.936;2022-09-09T16:35:44;29.60;58.80
53904;DHT22;39812;52.430;16.936;2022-09-09T16:38:10;29.00;60.70
53904;DHT22;39812;52.430;16.936;2022-09-09T16:40:37;29.50;60.50
53904;DHT22;39812;52.430;16.936;2022-09-09T16:43:03;29.50;60.40